Time;durP1;ratioP1;P1;durP2;ratioP2;P2;SDS_P1;SDS_P2;PMS_P1;PMS_P2;Temp;Humidity;BMP_temperature;BMP_pressure;BME280_temperature;BME280_humidity;BME280_pressure;Samples;Min_cycle;Max_cycle;Signal;HPM_P1;HPM_P2
2021/04/02 00:01:19;;;;;;;5.97;4.97;;;7.20;99.90;;;;;;4963562;28;20683;-63
2021/04/02 00:03:47;;;;;;;4.93;4.47;;;7.10;99.90;;;;;;4962519;28;20917;-62
2021/04/02 00:06:28;;;;;;;5.47;4.97;;;7.10;99.90;;;;;;4964325;28;20631;-62
2021/04/02 00:09:01;;;;;;;5.73;5.13;;;7.10;99.90;;;;;;4964786;28;21209;-67
2021/04/02 00:11:29;;;;;;;6.57;5.97;;;7.00;99.90;;;;;;4964183;28;21376;-62
2021/04/02 00:13:55;;;;;;;6.83;6.13;;;7.00;99.90;;;;;;4966989;28;20646;-63
2021/04/02 00:16:23;;;;;;;9.13;6.73;;;7.00;99.90;;;;;;4962636;28;20608;-62
2021/04/02 00:19:14;;;;;;;7.17;6.47;;;6.90;99.90;;;;;;4967758;28;20367;-62
2021/04/02 00:21:44;;;;;;;7.37;6.50;;;6.90;99.90;;;;;;4960280;28;22062;-68
2021/04/02 00:24:32;;;;;;;;;;;;;;;;;;;;;
2021/04/02 00:27:15;;;;;;;8.20;7.10;;;6.80;99.90;;;;;;4960489;28;20607;-62
2021/04/02 00:29:46;;;;;;;8.73;7.67;;;6.80;99.90;;;;;;4962079;28;21225;-62
2021/04/02 00:32:19;;;;;;;9.60;8.40;;;6.80;99.90;;;;;;4963872;28;20691;-61
2021/04/02 00:34:55;;;;;;;9.70;8.50;;;6.80;99.90;;;;;;4964565;28;20620;-61
2021/04/02 00:37:21;;;;;;;11.07;8.30;;;6.70;99.90;;;;;;4963343;28;20671;-63
2021/04/02 00:39:56;;;;;;;9.57;8.10;;;6.70;99.90;;;;;;4964193;28;20686;-63
2021/04/02 00:42:25;;;;;;;7.83;7.03;;;6.70;99.90;;;;;;4964321;28;22657;-62
2021/04/02 00:45:03;;;;;;;9.17;7.67;;;6.60;99.90;;;;;;4961033;28;20827;-62
2021/04/02 00:47:50;;;;;;;;;;;;;;;;;;;;;
2021/04/02 00:50:34;;;;;;;14.80;10.60;;;6.50;99.90;;;;;;4960874;28;20691;-62
2021/04/02 00:53:02;;;;;;;17.23;12.20;;;6.60;99.90;;;;;;4957184;28;21250;-62
2021/04/02 00:55:30;;;;;;;18.60;13.00;;;6.60;99.90;;;;;;4962768;28;20643;-62
2021/04/02 00:57:59;;;;;;;21.83;12.33;;;6.60;99.90;;;;;;4979485;28;20755;-62
2021/04/02 01:00:31;;;;;;;18.57;12.40;;;6.60;99.90;;;;;;4960082;28;23133;-61
2021/04/02 01:03:05;;;;;;;23.07;14.17;;;6.60;99.90;;;;;;4959852;28;20655;-63
2021/04/02 01:05:48;;;;;;;17.87;12.70;;;6.60;99.90;;;;;;4963418;28;21317;-62
2021/04/02 01:08:28;;;;;;;;;;;;;;;;;;;;;
2021/04/02 01:11:02;;;;;;;18.10;11.90;;;6.60;99.90;;;;;;4966235;28;20623;-61
2021/04/02 01:13:46;;;;;;;18.07;12.60;;;6.60;99.90;;;;;;4957379;28;20686;-63
2021/04/02 01:16:39;;;;;;;18.50;12.30;;;6.60;99.90;;;;;;4962809;28;20702;-63
2021/04/02 01:19:18;;;;;;;16.00;11.80;;;6.60;99.90;;;;;;4964531;28;23216;-62
2021/04/02 01:21:58;;;;;;;15.70;11.47;;;6.60;99.90;;;;;;4962297;28;20822;-62
2021/04/02 01:24:43;;;;;;;21.53;12.07;;;6.60;99.90;;;;;;4956296;28;20734;-61
2021/04/02 01:27:53;;;;;;;16.27;12.30;;;6.60;99.90;;;;;;4961325;28;20607;-62
2021/04/02 01:30:19;;;;;;;18.43;11.40;;;6.60;99.90;;;;;;4937443;28;20639;-64
2021/04/02 01:32:52;;;;;;;19.07;13.00;;;6.60;99.90;;;;;;4967475;28;20664;-61
2021/04/02 01:35:34;;;;;;;16.37;12.50;;;6.60;99.90;;;;;;4957510;28;20651;-61
2021/04/02 01:38:27;;;;;;;18.17;12.30;;;6.60;99.90;;;;;;4956945;28;20656;-63
2021/04/02 01:41:14;;;;;;;25.10;13.33;;;6.50;99.90;;;;;;4938069;28;20695;-62
2021/04/02 01:44:06;;;;;;;19.47;12.97;;;6.60;99.90;;;;;;4963211;28;20660;-61
2021/04/02 01:46:45;;;;;;;19.43;13.20;;;6.60;99.90;;;;;;4957626;28;20864;-62
2021/04/02 01:49:30;;;;;;;16.03;11.63;;;6.50;99.90;;;;;;4963122;28;21268;-61
2021/04/02 01:52:01;;;;;;;17.03;12.10;;;6.50;99.90;;;;;;4960415;28;20660;-62
2021/04/02 01:54:31;;;;;;;47.53;13.67;;;6.50;99.90;;;;;;4958110;28;20719;-62
2021/04/02 01:57:00;;;;;;;32.37;13.60;;;6.50;99.90;;;;;;4960395;28;20617;-63
2021/04/02 01:59:32;;;;;;;19.30;13.57;;;6.50;99.90;;;;;;4963693;28;20713;-62
2021/04/02 02:02:01;;;;;;;23.43;12.83;;;6.50;99.90;;;;;;4959544;28;21317;-61
2021/04/02 02:04:29;;;;;;;20.30;12.03;;;6.40;99.90;;;;;;4962446;28;20616;-61
2021/04/02 02:06:58;;;;;;;17.73;12.43;;;6.40;99.90;;;;;;4962963;28;20719;-62
2021/04/02 02:09:38;;;;;;;17.77;13.00;;;6.40;99.90;;;;;;4967810;28;20648;-62
2021/04/02 02:12:09;;;;;;;15.03;10.77;;;6.30;99.90;;;;;;4967224;28;20741;-61
2021/04/02 02:14:47;;;;;;;23.63;11.83;;;6.40;99.90;;;;;;4966458;28;20797;-62
2021/04/02 02:17:26;;;;;;;14.00;10.40;;;6.30;99.90;;;;;;4967223;28;20710;-61
2021/04/02 02:19:56;;;;;;;15.43;10.90;;;6.30;99.90;;;;;;4966144;28;20619;-62
2021/04/02 02:22:23;;;;;;;17.80;12.40;;;6.30;99.90;;;;;;4955733;28;20665;-62
2021/04/02 02:24:51;;;;;;;22.80;12.80;;;6.30;99.90;;;;;;4965814;28;20632;-63
2021/04/02 02:27:26;;;;;;;24.13;12.87;;;6.30;99.90;;;;;;4960816;28;20639;-61
2021/04/02 02:29:55;;;;;;;19.93;13.40;;;6.20;99.90;;;;;;4966206;28;20675;-65
2021/04/02 02:32:24;;;;;;;18.80;12.80;;;6.20;99.90;;;;;;4965161;28;20652;-62
2021/04/02 02:35:01;;;;;;;13.60;10.30;;;6.20;99.90;;;;;;4966031;28;20626;-62
2021/04/02 02:37:33;;;;;;;15.17;10.73;;;6.10;99.90;;;;;;4968464;28;20718;-62
2021/04/02 02:40:18;;;;;;;21.10;10.87;;;6.20;99.90;;;;;;4965450;28;20643;-62
2021/04/02 02:42:48;;;;;;;13.00;10.27;;;6.10;99.90;;;;;;4957900;28;20735;-61
2021/04/02 02:45:23;;;;;;;14.63;11.33;;;6.20;99.90;;;;;;4963535;28;22132;-63
2021/04/02 02:47:54;;;;;;;15.00;10.87;;;6.10;99.90;;;;;;4964455;28;21042;-62
2021/04/02 02:50:31;;;;;;;16.03;11.03;;;6.10;99.90;;;;;;4958450;28;20635;-62
2021/04/02 02:53:01;;;;;;;17.80;11.90;;;6.10;99.90;;;;;;4962907;28;20850;-61
2021/04/02 02:55:36;;;;;;;18.53;12.40;;;6.10;99.90;;;;;;4962065;28;20686;-61
2021/04/02 03:01:07;;;;;;;16.13;12.27;;;6.10;99.90;;;;;;4965484;28;20670;-61
2021/04/02 03:03:34;;;;;;;17.10;11.63;;;6.00;99.90;;;;;;4961235;28;20720;-62
2021/04/02 03:06:05;;;;;;;15.60;12.27;;;6.00;99.90;;;;;;4963509;28;20624;-61
2021/04/02 03:08:57;;;;;;;19.87;12.03;;;6.00;99.90;;;;;;4965040;28;21434;-61
2021/04/02 03:11:25;;;;;;;20.03;11.67;;;6.00;99.90;;;;;;4965525;28;21703;-61
2021/04/02 03:13:56;;;;;;;23.20;11.13;;;6.00;99.90;;;;;;4958841;28;20744;-62
2021/04/02 03:16:24;;;;;;;22.20;12.47;;;6.00;99.90;;;;;;4961700;28;20624;-61
2021/04/02 03:19:02;;;;;;;15.60;11.43;;;5.90;99.90;;;;;;4964239;28;20656;-61
2021/04/02 03:21:41;;;;;;;16.53;11.40;;;5.90;99.90;;;;;;4960399;28;20651;-62
2021/04/02 03:24:08;;;;;;;12.40;10.10;;;5.90;99.90;;;;;;4966513;28;20908;-62
2021/04/02 03:26:54;;;;;;;26.20;11.97;;;5.90;99.90;;;;;;4967406;28;20628;-62
2021/04/02 03:29:29;;;;;;;18.40;10.40;;;5.90;99.90;;;;;;4963390;28;20660;-62
2021/04/02 03:32:22;;;;;;;13.17;10.63;;;5.90;99.90;;;;;;4964272;28;22267;-61
2021/04/02 03:35:02;;;;;;;;;;;;;;;;;;;;;
2021/04/02 03:37:36;;;;;;;12.60;11.07;;;5.90;99.90;;;;;;4964699;28;20623;-62
2021/04/02 03:40:18;;;;;;;13.80;10.60;;;5.90;99.90;;;;;;4967800;28;20911;-61
2021/04/02 03:42:52;;;;;;;11.27;9.53;;;5.90;99.90;;;;;;4961609;28;20983;-65
2021/04/02 03:45:20;;;;;;;13.70;10.60;;;5.80;99.90;;;;;;4967212;28;22381;-62
2021/04/02 03:47:55;;;;;;;17.23;9.53;;;5.80;99.90;;;;;;4960752;28;20663;-60
2021/04/02 03:50:29;;;;;;;14.87;10.73;;;5.80;99.90;;;;;;4964072;28;21148;-61
2021/04/02 03:53:28;;;;;;;13.10;10.27;;;5.80;99.90;;;;;;4964772;28;20663;-61
2021/04/02 03:55:59;;;;;;;23.60;11.83;;;5.80;99.90;;;;;;4961042;28;21559;-62
2021/04/02 03:58:31;;;;;;;13.90;11.53;;;5.80;99.90;;;;;;4963978;28;20662;-62
2021/04/02 04:01:32;;;;;;;18.00;11.03;;;5.80;99.90;;;;;;4963614;28;21067;-63
2021/04/02 04:04:02;;;;;;;13.90;11.10;;;5.90;99.90;;;;;;4942092;28;21869;-62
2021/04/02 04:06:37;;;;;;;13.70;11.80;;;5.80;99.90;;;;;;4965157;28;20631;-62
2021/04/02 04:09:20;;;;;;;16.73;12.40;;;5.70;99.90;;;;;;4958101;28;21115;-63
2021/04/02 04:11:51;;;;;;;20.00;11.83;;;5.70;99.90;;;;;;4959485;28;20676;-62
2021/04/02 04:14:36;;;;;;;14.40;12.90;;;5.70;99.90;;;;;;4966199;28;22493;-61
2021/04/02 04:17:06;;;;;;;15.57;13.60;;;5.60;99.90;;;;;;4958087;28;21263;-67
2021/04/02 04:19:40;;;;;;;17.67;14.20;;;5.60;99.90;;;;;;4964735;28;21268;-62
2021/04/02 04:22:08;;;;;;;16.30;14.00;;;5.70;99.90;;;;;;4958255;28;20781;-64
2021/04/02 04:24:47;;;;;;;16.20;13.97;;;5.70;99.90;;;;;;4958583;28;20766;-62
2021/04/02 04:27:22;;;;;;;17.33;15.43;;;5.60;99.90;;;;;;4958285;28;21179;-62
2021/04/02 04:29:51;;;;;;;20.73;16.77;;;5.60;99.90;;;;;;4965244;28;20771;-64
2021/04/02 04:32:19;;;;;;;18.53;16.10;;;5.50;99.90;;;;;;4978765;28;20660;-62
2021/04/02 04:34:51;;;;;;;18.40;15.83;;;5.50;99.90;;;;;;4955095;28;20623;-63
2021/04/02 04:37:25;;;;;;;18.10;15.50;;;5.40;99.90;;;;;;4979144;28;21151;-62
2021/04/02 04:39:55;;;;;;;20.27;15.17;;;5.40;99.90;;;;;;4963361;28;20928;-62
2021/04/02 04:42:24;;;;;;;18.70;15.03;;;5.30;99.90;;;;;;4955622;28;20652;-64
2021/04/02 04:44:59;;;;;;;16.53;14.73;;;5.40;99.90;;;;;;4957450;28;20628;-62
2021/04/02 04:47:30;;;;;;;19.43;15.03;;;5.40;99.90;;;;;;4958767;28;20662;-61
2021/04/02 04:50:11;;;;;;;18.17;14.87;;;5.30;99.90;;;;;;4963535;28;21422;-62
2021/04/02 04:52:59;;;;;;;16.33;14.40;;;5.40;99.90;;;;;;4960119;28;22774;-63
2021/04/02 04:55:28;;;;;;;15.10;13.40;;;5.40;99.90;;;;;;4958041;28;20668;-62
2021/04/02 04:58:34;;;;;;;16.53;13.03;;;5.40;99.90;;;;;;4977858;28;22153;-62
2021/04/02 05:01:05;;;;;;;15.47;13.53;;;5.30;99.90;;;;;;4959979;28;20935;-61
2021/04/02 05:03:37;;;;;;;15.13;13.03;;;5.20;99.90;;;;;;4963294;28;20751;-62
2021/04/02 05:06:12;;;;;;;14.50;12.67;;;5.10;99.90;;;;;;4962908;28;20623;-61
2021/04/02 05:08:47;;;;;;;14.30;11.80;;;5.10;99.90;;;;;;4963003;28;20662;-62
2021/04/02 05:11:26;;;;;;;15.40;11.87;;;5.00;99.90;;;;;;4961126;28;20719;-61
2021/04/02 05:13:54;;;;;;;15.00;12.87;;;5.00;99.90;;;;;;4957842;28;20648;-63
2021/04/02 05:16:21;;;;;;;12.47;11.07;;;5.00;99.90;;;;;;4961350;28;21363;-61
2021/04/02 05:18:59;;;;;;;11.70;10.40;;;4.90;99.90;;;;;;4962732;28;20652;-61
2021/04/02 05:21:25;;;;;;;11.90;10.30;;;4.80;99.90;;;;;;4959372;28;21182;-62
2021/04/02 05:23:54;;;;;;;11.53;10.10;;;4.90;99.90;;;;;;4961020;28;20624;-62
2021/04/02 05:26:30;;;;;;;14.20;11.03;;;4.70;99.90;;;;;;4962194;28;20207;-62
2021/04/02 05:28:58;;;;;;;14.50;9.97;;;4.70;99.90;;;;;;4971258;28;20648;-61
2021/04/02 05:31:32;;;;;;;11.17;9.97;;;4.70;99.90;;;;;;4987547;28;20632;-61
2021/04/02 05:34:01;;;;;;;10.90;9.10;;;4.70;99.90;;;;;;4992064;28;20612;-61
2021/04/02 05:36:28;;;;;;;14.33;9.87;;;4.60;99.90;;;;;;4991625;28;20604;-61
2021/04/02 05:38:56;;;;;;;12.13;9.23;;;4.70;99.90;;;;;;4982527;28;20648;-62
2021/04/02 05:41:32;;;;;;;14.03;9.90;;;4.70;99.90;;;;;;4967066;28;21095;-63
2021/04/02 05:44:19;;;;;;;14.03;10.67;;;4.70;99.90;;;;;;4966498;28;20611;-61
2021/04/02 05:46:48;;;;;;;15.63;10.00;;;4.70;99.90;;;;;;4981606;28;20957;-63
2021/04/02 05:49:38;;;;;;;16.77;10.80;;;4.70;99.90;;;;;;4969025;28;20739;-62
2021/04/02 05:52:07;;;;;;;13.57;10.10;;;4.70;99.90;;;;;;4972511;28;20644;-63
2021/04/02 05:54:42;;;;;;;13.50;9.20;;;4.80;99.90;;;;;;4968396;28;20643;-63
2021/04/02 05:57:34;;;;;;;15.30;10.10;;;4.80;99.90;;;;;;4969142;28;20591;-62
2021/04/02 06:00:05;;;;;;;11.33;9.13;;;4.80;99.90;;;;;;4966078;28;20612;-63
2021/04/02 06:02:33;;;;;;;16.13;10.23;;;4.80;99.90;;;;;;4958685;28;21405;-63
2021/04/02 06:05:00;;;;;;;14.73;9.37;;;4.90;99.90;;;;;;4951317;28;20829;-65
2021/04/02 06:07:26;;;;;;;12.70;9.17;;;4.90;99.90;;;;;;4960106;28;20715;-62
2021/04/02 06:09:54;;;;;;;13.03;9.10;;;4.90;99.90;;;;;;4969782;28;20668;-61
2021/04/02 06:12:26;;;;;;;14.60;8.77;;;5.10;99.90;;;;;;4961172;28;20470;-62
2021/04/02 06:14:52;;;;;;;11.27;8.10;;;5.10;99.90;;;;;;4965549;28;20826;-62
2021/04/02 06:17:19;;;;;;;11.63;8.33;;;5.20;99.90;;;;;;4964973;28;20612;-67
2021/04/02 06:20:03;;;;;;;9.50;8.17;;;5.20;99.90;;;;;;4956126;28;20190;-63
2021/04/02 06:22:31;;;;;;;10.53;7.83;;;5.30;99.90;;;;;;4959689;28;22062;-63
2021/04/02 06:25:05;;;;;;;10.17;7.30;;;5.30;99.90;;;;;;4951772;28;20748;-63
2021/04/02 06:27:31;;;;;;;13.40;7.80;;;5.30;99.90;;;;;;4964775;28;20712;-62
2021/04/02 06:30:02;;;;;;;9.00;6.43;;;5.40;99.90;;;;;;4961995;28;23383;-62
2021/04/02 06:32:44;;;;;;;14.37;6.97;;;5.40;99.90;;;;;;4955466;28;20620;-61
2021/04/02 06:35:13;;;;;;;8.87;6.37;;;5.40;99.90;;;;;;4955640;28;20720;-60
2021/04/02 06:37:39;;;;;;;14.90;6.37;;;5.50;99.90;;;;;;4954420;28;20652;-64
2021/04/02 06:40:15;;;;;;;11.50;7.10;;;5.60;99.90;;;;;;4966572;28;20621;-63
2021/04/02 06:42:44;;;;;;;12.30;5.90;;;5.80;99.90;;;;;;4967407;28;20495;-62
2021/04/02 06:45:11;;;;;;;8.57;6.07;;;5.90;99.90;;;;;;4965316;28;20616;-62
2021/04/02 06:47:39;;;;;;;6.90;5.20;;;5.80;99.90;;;;;;4962837;28;21350;-63
2021/04/02 06:50:25;;;;;;;8.80;7.00;;;5.90;99.90;;;;;;4950599;28;21581;-62
2021/04/02 06:52:55;;;;;;;11.17;6.37;;;5.90;99.90;;;;;;4960788;28;21422;-62
2021/04/02 06:55:22;;;;;;;10.87;6.20;;;6.00;99.90;;;;;;4962336;28;20623;-62
2021/04/02 06:57:50;;;;;;;9.40;6.77;;;6.00;99.90;;;;;;4960430;28;20809;-62
2021/04/02 07:00:24;;;;;;;8.93;6.20;;;6.00;99.90;;;;;;4959872;28;20612;-62
2021/04/02 07:02:51;;;;;;;9.47;6.00;;;6.10;99.90;;;;;;4955203;28;20644;-67
2021/04/02 07:05:22;;;;;;;11.10;6.13;;;6.20;99.90;;;;;;4957483;28;21274;-62
2021/04/02 07:07:52;;;;;;;10.00;6.13;;;6.20;99.90;;;;;;4952918;28;20640;-62
2021/04/02 07:10:20;;;;;;;13.60;5.83;;;6.20;99.90;;;;;;4956519;28;20731;-62
2021/04/02 07:12:50;;;;;;;10.03;6.57;;;6.20;99.90;;;;;;4951768;28;21257;-63
2021/04/02 07:15:19;;;;;;;11.13;5.77;;;6.30;99.90;;;;;;4956103;28;20734;-66
2021/04/02 07:17:45;;;;;;;14.00;6.37;;;6.30;99.90;;;;;;4960498;28;20643;-61
2021/04/02 07:20:12;;;;;;;8.47;6.17;;;6.40;99.90;;;;;;4948825;28;20628;-70
2021/04/02 07:22:39;;;;;;;6.53;5.33;;;6.40;99.90;;;;;;4947898;28;21510;-65
2021/04/02 07:25:06;;;;;;;10.33;5.80;;;6.50;99.90;;;;;;4950047;28;20620;-62
2021/04/02 07:27:32;;;;;;;8.03;5.07;;;6.40;99.90;;;;;;4951689;28;20726;-62
2021/04/02 07:29:58;;;;;;;8.00;5.00;;;6.40;99.90;;;;;;4953417;28;20624;-63
2021/04/02 07:32:24;;;;;;;7.83;5.70;;;6.50;99.90;;;;;;4952151;28;20737;-63
2021/04/02 07:34:51;;;;;;;9.37;4.67;;;6.50;99.90;;;;;;4948785;28;21896;-62
2021/04/02 07:37:18;;;;;;;7.57;4.53;;;6.60;99.90;;;;;;4947134;28;20615;-63
2021/04/02 07:39:48;;;;;;;7.27;4.60;;;6.70;99.90;;;;;;4966112;28;21893;-65
2021/04/02 07:42:14;;;;;;;8.57;4.30;;;6.70;99.90;;;;;;4953695;28;21223;-63
2021/04/02 07:44:44;;;;;;;7.67;5.40;;;6.70;99.90;;;;;;4951549;28;20653;-62
2021/04/02 07:47:12;;;;;;;8.93;3.67;;;6.80;99.90;;;;;;4945157;28;20198;-63
2021/04/02 07:49:41;;;;;;;9.83;4.17;;;6.90;99.90;;;;;;4938566;28;21393;-62
2021/04/02 07:52:07;;;;;;;10.07;4.20;;;7.00;99.90;;;;;;4929834;28;20691;-62
2021/04/02 07:54:40;;;;;;;6.90;3.90;;;7.10;99.90;;;;;;4944264;28;20625;-63
2021/04/02 07:57:16;;;;;;;7.73;4.47;;;7.10;99.90;;;;;;4934086;28;20910;-62
2021/04/02 07:59:41;;;;;;;5.27;3.73;;;7.20;99.90;;;;;;4934399;28;20993;-63
2021/04/02 08:02:13;;;;;;;6.67;3.27;;;7.20;99.90;;;;;;4935198;28;21182;-62
2021/04/02 08:04:57;;;;;;;8.50;3.97;;;7.30;99.90;;;;;;4935114;28;20204;-63
2021/04/02 08:07:33;;;;;;;12.30;4.70;;;7.30;99.90;;;;;;4962733;28;20647;-62
2021/04/02 08:10:12;;;;;;;12.10;3.90;;;7.30;99.90;;;;;;4960452;28;20624;-62
2021/04/02 08:12:37;;;;;;;8.10;3.77;;;7.40;99.90;;;;;;4941662;28;20664;-62
2021/04/02 08:15:10;;;;;;;9.20;3.90;;;7.40;99.90;;;;;;4937204;28;20624;-62
2021/04/02 08:17:38;;;;;;;6.10;3.93;;;7.50;99.90;;;;;;4936974;28;21331;-62
2021/04/02 08:20:10;;;;;;;10.43;3.83;;;7.40;99.90;;;;;;4938605;28;20621;-61
2021/04/02 08:22:37;;;;;;;13.40;5.73;;;7.50;99.90;;;;;;4941715;28;21528;-63
2021/04/02 08:25:09;;;;;;;7.60;4.20;;;7.50;99.90;;;;;;4939614;28;21186;-63
2021/04/02 08:27:37;;;;;;;8.93;4.20;;;7.50;99.90;;;;;;4937609;28;20612;-62
2021/04/02 08:30:05;;;;;;;11.57;4.03;;;7.50;99.90;;;;;;4936410;28;20668;-63
2021/04/02 08:32:38;;;;;;;6.27;3.70;;;7.60;99.90;;;;;;4944297;28;20802;-62
2021/04/02 08:35:06;;;;;;;6.83;3.50;;;7.70;99.90;;;;;;4931799;28;20663;-62
2021/04/02 08:37:32;;;;;;;10.00;3.93;;;7.70;99.90;;;;;;4925410;28;20742;-63
2021/04/02 08:40:00;;;;;;;14.03;4.57;;;7.80;99.90;;;;;;4931570;28;21236;-62
2021/04/02 08:42:30;;;;;;;7.37;3.90;;;7.80;99.90;;;;;;4942677;28;20616;-63
2021/04/02 08:45:08;;;;;;;7.20;4.07;;;7.80;99.90;;;;;;4936661;28;23365;-62
2021/04/02 08:47:37;;;;;;;6.80;3.90;;;7.90;99.90;;;;;;4930942;28;20632;-62
2021/04/02 08:50:05;;;;;;;11.57;4.13;;;7.80;99.90;;;;;;4931482;28;21255;-62
2021/04/02 08:52:31;;;;;;;8.63;3.10;;;7.70;99.90;;;;;;4936686;28;20691;-63
2021/04/02 08:54:59;;;;;;;7.93;3.70;;;7.90;99.90;;;;;;4936496;28;20663;-62
2021/04/02 08:57:29;;;;;;;8.23;3.30;;;7.90;99.90;;;;;;4935632;28;21260;-63
2021/04/02 08:59:56;;;;;;;7.80;3.50;;;7.90;99.90;;;;;;4944904;28;20611;-62
2021/04/02 09:02:29;;;;;;;7.10;3.30;;;7.80;99.90;;;;;;4949863;28;21386;-61
2021/04/02 09:04:56;;;;;;;7.50;3.30;;;7.80;99.90;;;;;;4961037;28;22493;-63
2021/04/02 09:07:21;;;;;;;8.90;3.50;;;7.80;99.90;;;;;;4947644;28;20681;-62
2021/04/02 09:09:48;;;;;;;8.03;3.00;;;7.80;99.90;;;;;;4964570;28;20720;-62
2021/04/02 09:12:16;;;;;;;9.83;3.87;;;7.80;99.90;;;;;;4950597;28;20653;-63
2021/04/02 09:14:52;;;;;;;5.70;2.77;;;7.80;99.90;;;;;;4958211;28;20983;-62
2021/04/02 09:17:25;;;;;;;10.30;5.33;;;7.90;99.90;;;;;;4958535;28;20584;-62
2021/04/02 09:19:53;;;;;;;9.73;3.83;;;7.80;99.90;;;;;;4957060;28;20589;-62
2021/04/02 09:22:23;;;;;;;10.70;3.90;;;7.80;99.90;;;;;;4948947;28;21258;-62
2021/04/02 09:24:48;;;;;;;7.73;3.60;;;7.70;99.90;;;;;;4956926;28;20663;-63
2021/04/02 09:27:22;;;;;;;7.80;3.30;;;7.70;99.90;;;;;;4956919;28;20627;-62
2021/04/02 09:29:56;;;;;;;6.47;3.23;;;7.80;99.90;;;;;;4956941;28;20196;-62
2021/04/02 09:32:26;;;;;;;8.33;3.70;;;7.80;99.90;;;;;;4945926;28;21695;-62
2021/04/02 09:34:51;;;;;;;6.93;3.60;;;7.90;99.90;;;;;;4954018;28;20613;-62
2021/04/02 09:37:17;;;;;;;10.43;4.37;;;7.90;99.90;;;;;;4957477;28;20610;-62
2021/04/02 09:39:44;;;;;;;8.70;3.10;;;7.90;99.90;;;;;;4959283;28;20653;-62
2021/04/02 09:42:15;;;;;;;9.03;3.70;;;7.90;99.90;;;;;;4961696;28;20738;-63
2021/04/02 09:44:46;;;;;;;6.67;3.20;;;8.00;99.90;;;;;;4954190;28;20618;-62
2021/04/02 09:47:13;;;;;;;6.83;3.10;;;8.00;99.90;;;;;;4956794;28;20573;-63
2021/04/02 09:49:42;;;;;;;8.10;3.77;;;8.10;99.90;;;;;;4954001;28;20743;-62
2021/04/02 09:52:08;;;;;;;9.13;3.80;;;8.10;99.90;;;;;;4956626;28;20670;-62
2021/04/02 09:54:36;;;;;;;12.07;4.60;;;8.10;99.90;;;;;;4953925;28;20746;-61
2021/04/02 09:57:07;;;;;;;7.80;4.40;;;8.20;99.90;;;;;;4955771;28;22259;-62
2021/04/02 09:59:32;;;;;;;6.00;3.77;;;8.20;99.90;;;;;;4935850;28;20783;-70
2021/04/02 10:01:58;;;;;;;8.53;3.57;;;8.30;99.90;;;;;;4991772;28;20640;-69
2021/04/02 10:04:25;;;;;;;8.20;3.93;;;8.30;99.90;;;;;;5013271;28;20200;-68
2021/04/02 10:06:54;;;;;;;5.37;3.23;;;8.30;99.90;;;;;;5005607;28;20613;-68
2021/04/02 10:09:19;;;;;;;6.80;3.63;;;8.30;99.90;;;;;;5009164;28;20687;-71
2021/04/02 10:11:47;;;;;;;7.67;3.80;;;8.30;99.90;;;;;;5011209;28;21103;-70
2021/04/02 10:14:14;;;;;;;12.03;3.73;;;8.30;99.90;;;;;;5011794;28;20213;-71
2021/04/02 10:16:40;;;;;;;9.93;3.70;;;8.30;99.90;;;;;;5005139;28;20620;-72
2021/04/02 10:19:06;;;;;;;9.00;3.67;;;8.20;99.90;;;;;;4999422;28;20638;-73
2021/04/02 10:21:32;;;;;;;10.73;3.30;;;8.20;99.90;;;;;;5013020;28;20631;-72
2021/04/02 10:24:01;;;;;;;8.20;4.00;;;8.40;99.90;;;;;;5011568;28;20611;-67
2021/04/02 10:26:28;;;;;;;4.90;3.13;;;8.20;99.90;;;;;;4958354;28;20623;-67
2021/04/02 10:28:54;;;;;;;5.97;3.03;;;8.20;99.90;;;;;;4952845;28;20659;-68
2021/04/02 10:31:20;;;;;;;8.20;3.70;;;8.20;99.90;;;;;;4951761;28;20629;-68
2021/04/02 10:33:46;;;;;;;7.83;3.33;;;8.00;99.90;;;;;;4957942;28;20659;-69
2021/04/02 10:36:12;;;;;;;4.73;3.10;;;8.00;99.90;;;;;;4958891;28;20809;-70
2021/04/02 10:38:38;;;;;;;9.73;4.50;;;8.00;99.90;;;;;;4952064;28;23335;-69
2021/04/02 10:41:03;;;;;;;9.30;4.60;;;8.00;99.90;;;;;;4963224;28;22204;-69
2021/04/02 10:43:30;;;;;;;6.20;3.30;;;8.10;99.90;;;;;;4954874;28;20818;-70
2021/04/02 10:45:56;;;;;;;6.67;2.97;;;8.10;99.90;;;;;;4951542;28;20279;-68
2021/04/02 10:48:21;;;;;;;8.03;4.00;;;8.10;99.90;;;;;;4959083;28;21470;-67
2021/04/02 10:50:48;;;;;;;7.17;4.03;;;8.10;99.90;;;;;;4957773;28;20985;-67
2021/04/02 10:53:14;;;;;;;8.30;3.50;;;8.20;99.90;;;;;;4955274;28;20233;-67
2021/04/02 10:55:41;;;;;;;5.37;3.27;;;8.30;99.90;;;;;;4953790;28;20711;-68
2021/04/02 10:58:07;;;;;;;7.87;2.73;;;8.30;99.90;;;;;;4956390;28;20751;-68
2021/04/02 11:00:34;;;;;;;8.50;3.30;;;8.30;99.90;;;;;;4953100;28;20629;-68
2021/04/02 11:03:00;;;;;;;5.77;2.60;;;8.30;99.90;;;;;;4954868;28;20501;-68
2021/04/02 11:05:26;;;;;;;9.63;3.20;;;8.30;99.90;;;;;;4957959;28;20672;-71
2021/04/02 11:07:51;;;;;;;7.60;2.47;;;8.30;99.90;;;;;;4950746;28;20652;-70
2021/04/02 11:10:17;;;;;;;6.40;3.00;;;8.30;99.90;;;;;;4952441;28;20213;-62
2021/04/02 11:12:43;;;;;;;5.10;3.03;;;8.40;99.90;;;;;;4955578;28;20277;-62
2021/04/02 11:15:13;;;;;;;4.43;3.00;;;8.50;99.90;;;;;;4952688;28;20647;-62
2021/04/02 11:17:40;;;;;;;7.30;3.13;;;8.50;99.90;;;;;;4961062;28;20866;-62
2021/04/02 11:20:07;;;;;;;8.47;3.73;;;8.50;99.90;;;;;;4963186;28;21378;-63
2021/04/02 11:22:32;;;;;;;6.13;2.90;;;8.50;99.90;;;;;;4957809;28;21006;-63
2021/04/02 11:24:58;;;;;;;6.80;3.23;;;8.40;99.90;;;;;;4953438;28;23908;-62
2021/04/02 11:27:23;;;;;;;4.63;2.73;;;8.30;99.90;;;;;;4953931;28;20949;-62
2021/04/02 11:29:55;;;;;;;5.90;3.00;;;8.40;99.90;;;;;;4953727;28;20358;-61
2021/04/02 11:32:21;;;;;;;6.67;3.20;;;8.40;99.90;;;;;;4959382;28;20257;-62
2021/04/02 11:34:48;;;;;;;5.10;3.30;;;8.50;99.90;;;;;;4950674;28;20709;-64
2021/04/02 11:37:14;;;;;;;5.63;3.80;;;8.50;99.90;;;;;;4950056;28;20623;-62
2021/04/02 11:39:40;;;;;;;7.17;3.20;;;8.70;99.90;;;;;;4951570;28;20652;-63
2021/04/02 11:42:06;;;;;;;6.43;2.90;;;8.70;99.90;;;;;;4958148;28;20384;-61
2021/04/02 11:44:31;;;;;;;6.83;3.00;;;8.70;99.90;;;;;;4955580;28;20197;-62
2021/04/02 11:46:57;;;;;;;8.43;3.20;;;8.80;99.90;;;;;;4959205;28;20694;-62
2021/04/02 11:49:23;;;;;;;5.70;3.00;;;8.80;99.90;;;;;;4953447;28;20315;-62
2021/04/02 11:51:48;;;;;;;4.30;2.80;;;8.80;99.90;;;;;;4955463;28;20221;-63
2021/04/02 11:54:14;;;;;;;6.50;3.07;;;8.80;99.90;;;;;;4956346;28;20694;-62
2021/04/02 11:56:40;;;;;;;7.37;2.80;;;8.80;99.90;;;;;;4957735;28;22891;-62
2021/04/02 11:59:05;;;;;;;6.13;3.17;;;8.90;99.90;;;;;;4953273;28;20898;-63
2021/04/02 12:01:33;;;;;;;7.57;2.80;;;8.90;99.90;;;;;;4972805;28;20479;-63
2021/04/02 12:03:59;;;;;;;5.63;3.03;;;9.00;99.90;;;;;;4959972;28;20504;-61
2021/04/02 12:06:25;;;;;;;6.77;2.80;;;9.00;99.90;;;;;;4953499;28;20624;-62
2021/04/02 12:08:50;;;;;;;6.10;2.83;;;9.00;99.90;;;;;;4964281;28;20420;-62
2021/04/02 12:11:16;;;;;;;7.00;2.80;;;8.90;99.90;;;;;;4955479;28;20204;-61
2021/04/02 12:13:41;;;;;;;12.27;3.30;;;9.00;99.90;;;;;;4957379;28;20574;-61
2021/04/02 12:16:07;;;;;;;5.50;2.80;;;9.00;99.90;;;;;;4954506;28;20994;-62
2021/04/02 12:18:33;;;;;;;5.43;2.80;;;8.80;99.90;;;;;;4960300;28;20213;-63
2021/04/02 12:20:59;;;;;;;4.00;2.20;;;8.70;99.90;;;;;;4956193;28;20315;-62
2021/04/02 12:23:25;;;;;;;6.80;3.10;;;8.80;99.90;;;;;;4956100;28;20648;-61
2021/04/02 12:25:50;;;;;;;7.90;2.80;;;8.70;99.90;;;;;;4965421;28;20299;-62
2021/04/02 12:28:16;;;;;;;7.57;2.97;;;8.80;99.90;;;;;;4980453;28;21294;-62
2021/04/02 12:30:42;;;;;;;7.33;3.17;;;8.80;99.90;;;;;;4972446;28;20181;-62
2021/04/02 12:33:07;;;;;;;5.00;2.60;;;8.80;99.90;;;;;;4961819;28;22222;-63
2021/04/02 12:35:33;;;;;;;5.80;2.90;;;8.90;99.90;;;;;;4959180;28;20205;-62
2021/04/02 12:38:01;;;;;;;6.57;2.70;;;9.00;99.90;;;;;;4975571;28;20213;-62
2021/04/02 12:40:27;;;;;;;9.00;2.90;;;9.00;99.90;;;;;;4978190;28;20801;-61
2021/04/02 12:42:53;;;;;;;5.23;2.47;;;9.00;99.90;;;;;;4979887;28;20764;-61
2021/04/02 12:45:20;;;;;;;6.97;2.80;;;8.90;99.90;;;;;;4978264;28;20948;-62
2021/04/02 12:47:46;;;;;;;3.57;2.13;;;8.90;99.90;;;;;;4972986;28;20701;-63
2021/04/02 12:50:15;;;;;;;9.73;2.57;;;8.90;99.90;;;;;;4952071;28;20648;-63
2021/04/02 12:52:41;;;;;;;4.97;2.77;;;8.90;99.90;;;;;;4955687;28;20771;-61
2021/04/02 12:55:09;;;;;;;5.63;3.13;;;8.90;99.90;;;;;;4958534;28;20730;-64
2021/04/02 12:57:35;;;;;;;9.80;4.00;;;8.90;99.90;;;;;;4959127;28;20202;-62
2021/04/02 13:00:02;;;;;;;7.20;4.20;;;8.90;99.90;;;;;;4960125;28;20631;-63
2021/04/02 13:02:27;;;;;;;9.30;3.60;;;8.80;99.90;;;;;;4959065;28;21019;-62
2021/04/02 13:04:53;;;;;;;6.90;3.03;;;8.90;99.90;;;;;;4954755;28;20646;-63
2021/04/02 13:07:20;;;;;;;7.13;3.97;;;8.90;99.90;;;;;;4956681;28;20275;-62
2021/04/02 13:09:45;;;;;;;3.93;2.60;;;8.90;99.90;;;;;;4949274;28;20338;-63
2021/04/02 13:12:11;;;;;;;9.10;3.37;;;9.00;99.90;;;;;;4972061;28;20730;-62
2021/04/02 13:14:37;;;;;;;9.30;3.33;;;9.00;99.90;;;;;;4951785;28;20808;-63
2021/04/02 13:17:06;;;;;;;6.93;3.43;;;9.00;99.90;;;;;;4954745;28;20369;-63